Time;durP1;ratioP1;P1;durP2;ratioP2;P2;SDS_P1;SDS_P2;PMS_P1;PMS_P2;Temp;Humidity;BMP_temperature;BMP_pressure;BME280_temperature;BME280_humidity;BME280_pressure;Samples;Min_cycle;Max_cycle;Signal;HPM_P1;HPM_P2
2022/01/29 00:00:54;;;;;;;22.35;9.18;;;2.00;99.90;;;;;;4951527;28;20674;-66
2022/01/29 00:03:22;;;;;;;28.17;10.50;;;2.00;99.90;;;;;;4951358;28;20162;-66
2022/01/29 00:05:48;;;;;;;27.70;9.65;;;1.90;99.90;;;;;;4955438;28;20046;-66
2022/01/29 00:08:14;;;;;;;23.50;9.38;;;2.00;99.90;;;;;;4950128;29;20099;-67
2022/01/29 00:10:42;;;;;;;21.38;8.88;;;1.90;99.90;;;;;;4952715;29;20118;-67
2022/01/29 00:13:08;;;;;;;24.17;9.60;;;1.90;99.90;;;;;;4951301;28;20428;-67
2022/01/29 00:15:34;;;;;;;25.35;9.73;;;1.90;99.90;;;;;;4952225;28;20031;-66
2022/01/29 00:17:59;;;;;;;22.27;9.02;;;1.90;99.90;;;;;;4951524;28;20031;-66
2022/01/29 00:20:25;;;;;;;26.50;9.77;;;1.90;99.90;;;;;;4949916;29;20039;-68
2022/01/29 00:22:51;;;;;;;27.17;9.93;;;1.90;99.90;;;;;;4950737;29;20042;-66
2022/01/29 00:25:17;;;;;;;26.17;10.02;;;2.00;99.90;;;;;;4951277;28;20063;-66
2022/01/29 00:27:43;;;;;;;24.23;9.77;;;1.90;99.90;;;;;;4950650;29;20383;-66
2022/01/29 00:30:13;;;;;;;27.70;9.73;;;1.90;99.90;;;;;;4951054;28;20121;-66
2022/01/29 00:32:39;;;;;;;31.63;10.95;;;1.90;99.90;;;;;;4951854;28;20054;-66
2022/01/29 00:35:05;;;;;;;28.55;9.80;;;1.90;99.90;;;;;;4941759;29;20481;-70
2022/01/29 00:37:31;;;;;;;24.40;10.60;;;1.90;99.90;;;;;;4949380;29;20039;-66
2022/01/29 00:39:56;;;;;;;29.48;10.43;;;1.90;99.90;;;;;;4951493;29;20058;-69
2022/01/29 00:42:23;;;;;;;29.15;10.40;;;1.90;99.90;;;;;;4950157;28;20114;-66
2022/01/29 00:44:49;;;;;;;26.95;10.63;;;1.90;99.90;;;;;;4952138;28;20037;-67
2022/01/29 00:47:15;;;;;;;26.27;9.77;;;1.90;99.90;;;;;;4949504;29;20042;-67
2022/01/29 00:49:42;;;;;;;27.38;9.95;;;1.90;99.90;;;;;;4951783;28;20058;-66
2022/01/29 00:52:08;;;;;;;26.30;9.18;;;1.90;99.90;;;;;;4950830;28;20031;-68
2022/01/29 00:54:33;;;;;;;27.10;10.48;;;1.90;99.90;;;;;;4951338;29;20118;-66
2022/01/29 00:56:59;;;;;;;24.95;8.85;;;1.90;99.90;;;;;;4951365;28;20826;-68
2022/01/29 00:59:24;;;;;;;28.77;10.27;;;1.90;99.90;;;;;;4949208;29;20033;-68
2022/01/29 01:01:50;;;;;;;25.73;9.88;;;1.80;99.90;;;;;;4951236;28;20023;-65
2022/01/29 01:04:16;;;;;;;27.50;9.90;;;1.90;99.90;;;;;;4949159;29;20377;-66
2022/01/29 01:06:42;;;;;;;29.80;9.75;;;1.80;99.90;;;;;;4951709;29;20031;-65
2022/01/29 01:09:07;;;;;;;22.80;10.00;;;1.90;99.90;;;;;;4950406;28;20055;-69
2022/01/29 01:11:33;;;;;;;24.83;10.02;;;1.90;99.90;;;;;;4950848;29;20031;-65
2022/01/29 01:13:58;;;;;;;27.58;10.25;;;1.90;99.90;;;;;;4949657;29;20097;-65
2022/01/29 01:16:24;;;;;;;24.10;10.02;;;1.80;99.90;;;;;;4950420;28;20161;-65
2022/01/29 01:18:50;;;;;;;27.40;9.85;;;1.80;99.90;;;;;;4950559;29;20122;-65
2022/01/29 01:21:15;;;;;;;27.75;10.18;;;1.80;99.90;;;;;;4950670;28;20031;-66
2022/01/29 01:23:41;;;;;;;26.40;10.02;;;1.80;99.90;;;;;;4951204;29;20031;-66
2022/01/29 01:26:07;;;;;;;25.98;10.23;;;1.80;99.90;;;;;;4950689;28;20023;-68
2022/01/29 01:28:33;;;;;;;28.13;10.88;;;1.80;99.90;;;;;;4950150;28;20039;-65
2022/01/29 01:30:59;;;;;;;31.65;11.10;;;1.80;99.90;;;;;;4949292;28;20031;-66
2022/01/29 01:33:25;;;;;;;30.75;10.13;;;1.80;99.90;;;;;;4949833;28;20512;-67
2022/01/29 01:35:54;;;;;;;24.75;9.70;;;1.80;99.90;;;;;;4950890;28;20503;-68
2022/01/29 01:38:25;;;;;;;26.75;9.77;;;1.80;99.90;;;;;;4949798;28;20481;-67
2022/01/29 01:40:55;;;;;;;27.33;9.57;;;1.80;99.90;;;;;;4949454;29;20043;-67
2022/01/29 01:43:21;;;;;;;28.58;8.90;;;1.80;99.90;;;;;;4950306;28;20118;-66
2022/01/29 01:45:47;;;;;;;24.00;10.02;;;1.80;99.90;;;;;;4951097;28;20110;-68
2022/01/29 01:48:12;;;;;;;25.77;9.57;;;1.90;99.90;;;;;;4949981;28;20035;-67
2022/01/29 01:50:38;;;;;;;25.67;9.30;;;1.90;99.90;;;;;;4950287;29;20134;-66
2022/01/29 01:53:04;;;;;;;23.85;9.45;;;1.90;99.90;;;;;;4950405;28;20035;-66
2022/01/29 01:55:30;;;;;;;21.52;9.95;;;1.80;99.90;;;;;;4948675;29;20125;-66
2022/01/29 01:57:57;;;;;;;27.27;9.50;;;1.90;99.90;;;;;;4950703;28;20110;-66
2022/01/29 02:00:25;;;;;;;23.52;9.45;;;1.90;99.90;;;;;;4949591;28;20109;-68
2022/01/29 02:02:51;;;;;;;24.52;9.43;;;1.90;99.90;;;;;;4951003;28;20027;-65
2022/01/29 02:05:17;;;;;;;25.05;10.13;;;1.80;99.90;;;;;;4948119;29;20089;-66
2022/01/29 02:07:43;;;;;;;24.38;9.57;;;1.80;99.90;;;;;;4943271;29;20059;-67
2022/01/29 02:10:11;;;;;;;25.15;9.75;;;1.80;99.90;;;;;;4950710;28;20051;-70
2022/01/29 02:12:53;;;;;;;24.00;9.43;;;1.80;99.90;;;;;;4945348;29;20032;-66
2022/01/29 02:15:21;;;;;;;23.50;8.73;;;1.80;99.90;;;;;;4948046;29;20162;-66
2022/01/29 02:17:48;;;;;;;23.85;9.20;;;1.80;99.90;;;;;;4950713;28;20031;-66
2022/01/29 02:20:18;;;;;;;28.08;9.18;;;1.80;99.90;;;;;;4948080;29;20400;-66
2022/01/29 02:22:45;;;;;;;27.92;9.70;;;1.80;99.90;;;;;;4949221;29;20480;-67
2022/01/29 02:25:37;;;;;;;27.83;9.18;;;1.80;99.90;;;;;;4948507;29;20082;-71
2022/01/29 02:28:18;;;;;;;25.65;9.63;;;1.80;99.90;;;;;;4950678;28;20035;-66
2022/01/29 02:30:47;;;;;;;22.23;8.77;;;1.80;99.90;;;;;;4950184;28;20047;-67
2022/01/29 02:33:14;;;;;;;25.67;8.77;;;1.80;99.90;;;;;;4950010;28;20027;-69
2022/01/29 02:35:42;;;;;;;23.13;8.93;;;1.80;99.90;;;;;;4949967;28;20035;-65
2022/01/29 02:38:09;;;;;;;22.67;8.82;;;1.70;99.90;;;;;;4949080;29;20039;-66
2022/01/29 02:40:42;;;;;;;24.98;8.75;;;1.70;99.90;;;;;;4947534;29;20079;-67
2022/01/29 02:43:18;;;;;;;22.13;9.25;;;1.70;99.90;;;;;;4948972;29;20086;-67
2022/01/29 02:45:45;;;;;;;24.95;8.70;;;1.70;99.90;;;;;;4948909;29;20794;-67
2022/01/29 02:48:11;;;;;;;23.52;9.00;;;1.70;99.90;;;;;;4949810;28;20082;-70
2022/01/29 02:50:38;;;;;;;22.70;8.98;;;1.70;99.90;;;;;;4950196;28;20420;-69
2022/01/29 02:53:04;;;;;;;23.48;8.45;;;1.70;99.90;;;;;;4948690;29;20038;-69
2022/01/29 02:55:30;;;;;;;25.58;9.32;;;1.60;99.90;;;;;;4949419;28;20031;-67
2022/01/29 02:57:56;;;;;;;25.15;9.70;;;1.60;99.90;;;;;;4949578;28;20038;-67
2022/01/29 03:00:22;;;;;;;26.33;9.43;;;1.60;99.90;;;;;;4948258;29;20543;-68
2022/01/29 03:02:48;;;;;;;25.00;9.32;;;1.60;99.90;;;;;;4948795;28;20054;-67
2022/01/29 03:05:14;;;;;;;27.55;9.75;;;1.60;99.90;;;;;;4951258;28;20445;-71
2022/01/29 03:07:39;;;;;;;26.58;9.43;;;1.50;99.90;;;;;;4950933;29;20043;-67
2022/01/29 03:10:07;;;;;;;23.23;9.52;;;1.60;99.90;;;;;;4953829;28;20047;-67
2022/01/29 03:12:33;;;;;;;21.17;8.63;;;1.60;99.90;;;;;;4952281;28;20039;-66
2022/01/29 03:14:59;;;;;;;24.70;8.65;;;1.60;99.90;;;;;;4953318;28;20106;-67
2022/01/29 03:17:24;;;;;;;25.45;9.10;;;1.60;99.90;;;;;;4950299;29;20035;-67
2022/01/29 03:19:52;;;;;;;31.67;9.93;;;1.60;99.90;;;;;;4951935;29;20494;-66
2022/01/29 03:22:18;;;;;;;24.30;8.75;;;1.60;99.90;;;;;;4952768;28;20035;-67
2022/01/29 03:24:44;;;;;;;28.48;9.57;;;1.60;99.90;;;;;;4952826;28;20035;-67
2022/01/29 03:27:10;;;;;;;24.30;9.30;;;1.50;99.90;;;;;;4953718;29;20057;-67
2022/01/29 03:29:36;;;;;;;25.05;9.18;;;1.60;99.90;;;;;;4951077;29;20476;-66
2022/01/29 03:32:02;;;;;;;27.33;9.38;;;1.60;99.90;;;;;;4952724;28;20046;-65
2022/01/29 03:34:28;;;;;;;25.67;9.52;;;1.60;99.90;;;;;;4951810;28;20034;-65
2022/01/29 03:36:56;;;;;;;34.90;10.13;;;1.50;99.90;;;;;;4953006;29;20113;-67
2022/01/29 03:39:23;;;;;;;24.58;10.02;;;1.50;99.90;;;;;;4951987;28;20502;-67
2022/01/29 03:41:49;;;;;;;29.75;10.02;;;1.50;99.90;;;;;;4953180;28;20464;-67
2022/01/29 03:44:15;;;;;;;28.70;9.75;;;1.60;99.90;;;;;;4950791;29;20031;-70
2022/01/29 03:46:40;;;;;;;25.75;10.15;;;1.50;99.90;;;;;;4952682;28;20031;-67
2022/01/29 03:49:06;;;;;;;25.42;9.23;;;1.50;99.90;;;;;;4952746;29;20110;-67
2022/01/29 03:51:32;;;;;;;33.03;9.57;;;1.50;99.90;;;;;;4951020;29;20050;-65
2022/01/29 03:53:58;;;;;;;24.25;9.13;;;1.50;99.90;;;;;;4952077;28;20067;-66
2022/01/29 03:56:23;;;;;;;26.02;9.73;;;1.50;99.90;;;;;;4952258;28;20392;-66
2022/01/29 03:58:49;;;;;;;27.10;9.25;;;1.50;99.90;;;;;;4961124;28;20030;-66
2022/01/29 04:01:15;;;;;;;21.65;8.43;;;1.50;99.90;;;;;;4961591;28;20042;-71
2022/01/29 04:03:40;;;;;;;21.77;9.02;;;1.50;99.90;;;;;;4952268;29;20027;-67
2022/01/29 04:06:06;;;;;;;25.67;9.48;;;1.50;99.90;;;;;;4952286;29;20111;-67
2022/01/29 04:08:39;;;;;;;22.70;8.57;;;1.50;99.90;;;;;;4951279;29;20109;-65
2022/01/29 04:11:06;;;;;;;19.95;8.13;;;1.50;99.90;;;;;;4941091;29;20039;-68
2022/01/29 04:13:31;;;;;;;26.33;8.85;;;1.50;99.90;;;;;;4951834;28;20387;-67
2022/01/29 04:15:57;;;;;;;23.13;9.07;;;1.50;99.90;;;;;;4951149;28;20027;-67
2022/01/29 04:18:23;;;;;;;24.02;9.10;;;1.50;99.90;;;;;;4951365;29;20062;-67
2022/01/29 04:20:48;;;;;;;19.73;8.23;;;1.50;99.90;;;;;;4952213;29;20073;-67
2022/01/29 04:23:14;;;;;;;25.83;8.35;;;1.50;99.90;;;;;;4950653;29;20063;-67
2022/01/29 04:25:40;;;;;;;21.42;7.95;;;1.50;99.90;;;;;;4950446;29;20031;-67
2022/01/29 04:28:07;;;;;;;18.85;7.50;;;1.50;99.90;;;;;;4951626;29;20083;-68
2022/01/29 04:30:42;;;;;;;22.15;7.65;;;1.60;99.90;;;;;;4949330;29;20163;-66
2022/01/29 04:33:24;;;;;;;22.90;8.25;;;1.60;99.90;;;;;;4951743;28;20038;-69
2022/01/29 04:35:50;;;;;;;21.27;7.90;;;1.50;99.90;;;;;;4950510;29;20035;-67
2022/01/29 04:38:16;;;;;;;24.55;8.15;;;1.50;99.90;;;;;;4951413;29;20032;-70
2022/01/29 04:40:42;;;;;;;20.05;7.90;;;1.60;99.90;;;;;;4950640;29;20040;-66
2022/01/29 04:43:08;;;;;;;22.63;7.97;;;1.50;99.90;;;;;;4951511;28;20046;-67
2022/01/29 04:45:34;;;;;;;20.55;8.57;;;1.50;99.90;;;;;;4950724;28;20031;-68
2022/01/29 04:47:59;;;;;;;23.00;8.48;;;1.50;99.90;;;;;;4946707;29;20098;-65
2022/01/29 04:50:25;;;;;;;25.15;9.02;;;1.40;99.90;;;;;;4948271;29;20035;-66
2022/01/29 04:52:51;;;;;;;20.10;7.65;;;1.50;99.90;;;;;;4948342;29;20039;-66
2022/01/29 04:55:17;;;;;;;20.38;7.88;;;1.50;99.90;;;;;;4949364;28;20035;-68
2022/01/29 04:57:42;;;;;;;25.55;8.48;;;1.50;99.90;;;;;;4951133;29;20035;-65
2022/01/29 05:00:12;;;;;;;17.83;7.35;;;1.40;99.90;;;;;;4950994;29;20054;-65
2022/01/29 05:02:38;;;;;;;18.05;7.97;;;1.40;99.90;;;;;;4950011;28;20696;-66
2022/01/29 05:05:05;;;;;;;21.30;7.68;;;1.40;99.90;;;;;;4949789;29;20035;-68
2022/01/29 05:07:31;;;;;;;27.13;9.10;;;1.40;99.90;;;;;;4949611;28;20457;-67
2022/01/29 05:09:57;;;;;;;18.80;8.02;;;1.50;99.90;;;;;;4949963;28;20035;-66
2022/01/29 05:12:29;;;;;;;17.10;7.00;;;1.40;99.90;;;;;;4949157;29;20019;-65
2022/01/29 05:28:05;;;;;;;16.98;6.45;;;1.60;99.90;;;;;;4946566;28;20042;-66
2022/01/29 05:30:31;;;;;;;19.30;7.25;;;1.60;99.90;;;;;;4945629;29;20400;-66
2022/01/29 05:32:56;;;;;;;17.25;7.38;;;1.60;99.90;;;;;;4949310;29;20038;-66
2022/01/29 05:35:22;;;;;;;18.73;6.85;;;1.60;99.90;;;;;;4950579;28;20035;-70
2022/01/29 05:37:51;;;;;;;20.35;7.35;;;1.60;99.90;;;;;;4951591;28;20443;-66
2022/01/29 05:40:18;;;;;;;17.65;6.40;;;1.60;99.90;;;;;;4944102;28;20495;-65
2022/01/29 05:42:44;;;;;;;19.48;6.95;;;1.50;99.90;;;;;;4958366;28;20042;-65
2022/01/29 05:45:10;;;;;;;16.33;6.57;;;1.50;99.90;;;;;;4960348;28;20460;-67
2022/01/29 05:47:36;;;;;;;15.98;6.60;;;1.40;99.90;;;;;;4941555;28;20038;-67
2022/01/29 05:50:04;;;;;;;22.33;6.93;;;1.40;99.90;;;;;;4950551;28;20039;-64
2022/01/29 05:52:29;;;;;;;16.08;6.60;;;1.40;99.90;;;;;;4949326;28;20035;-66
2022/01/29 05:54:55;;;;;;;21.08;7.10;;;1.40;99.90;;;;;;4948736;29;20098;-66
2022/01/29 05:57:20;;;;;;;18.55;6.68;;;1.50;99.90;;;;;;4950376;29;20035;-70
2022/01/29 05:59:46;;;;;;;15.00;5.95;;;1.50;99.90;;;;;;4950293;29;20050;-67
2022/01/29 06:02:12;;;;;;;15.85;6.20;;;1.60;99.90;;;;;;4950383;29;20492;-65
2022/01/29 06:04:37;;;;;;;14.20;5.72;;;1.60;99.90;;;;;;4949990;29;20023;-65
2022/01/29 06:07:03;;;;;;;14.75;5.40;;;1.60;99.90;;;;;;4948792;29;20036;-66
2022/01/29 06:09:29;;;;;;;16.13;5.70;;;1.60;99.90;;;;;;4949248;28;20105;-66
2022/01/29 06:11:54;;;;;;;18.85;5.70;;;1.60;99.90;;;;;;4951032;29;20043;-64
2022/01/29 06:14:20;;;;;;;17.02;5.95;;;1.60;99.90;;;;;;4948596;29;20035;-65
2022/01/29 06:16:46;;;;;;;14.85;5.43;;;1.60;99.90;;;;;;4949789;29;20039;-65
2022/01/29 06:19:11;;;;;;;19.35;6.32;;;1.60;99.90;;;;;;4950498;29;20035;-65
2022/01/29 06:21:37;;;;;;;16.17;6.20;;;1.60;99.90;;;;;;4949797;29;20035;-67
2022/01/29 06:24:03;;;;;;;18.05;6.80;;;1.60;99.90;;;;;;4949217;29;20034;-67
2022/01/29 06:26:28;;;;;;;16.85;6.18;;;1.60;99.90;;;;;;4948642;28;20035;-67
2022/01/29 06:28:54;;;;;;;16.90;5.72;;;1.60;99.90;;;;;;4949084;29;20101;-66
2022/01/29 06:31:20;;;;;;;20.23;6.63;;;1.70;99.90;;;;;;4950223;29;20063;-68
2022/01/29 06:33:46;;;;;;;12.23;5.78;;;1.70;99.90;;;;;;4949996;29;20031;-66
2022/01/29 06:36:12;;;;;;;18.45;6.03;;;1.70;99.90;;;;;;4950411;29;20027;-66
2022/01/29 06:38:37;;;;;;;13.15;5.22;;;1.70;99.90;;;;;;4950567;28;20047;-66
2022/01/29 06:41:03;;;;;;;15.27;6.20;;;1.70;99.90;;;;;;4950064;29;20047;-66
2022/01/29 06:43:29;;;;;;;17.17;6.25;;;1.70;99.90;;;;;;4953344;29;20023;-67
2022/01/29 06:45:55;;;;;;;14.93;6.50;;;1.80;99.90;;;;;;4954900;29;20031;-65
2022/01/29 06:48:22;;;;;;;16.45;6.65;;;1.80;99.90;;;;;;4953710;29;20465;-65
2022/01/29 06:50:47;;;;;;;17.80;6.97;;;1.80;99.90;;;;;;4953412;28;20043;-65
2022/01/29 06:53:13;;;;;;;18.23;7.72;;;1.80;99.90;;;;;;4952045;29;20046;-66
2022/01/29 06:55:39;;;;;;;17.33;7.97;;;1.70;99.90;;;;;;4943606;29;20070;-67
2022/01/29 06:58:05;;;;;;;24.65;9.20;;;1.70;99.90;;;;;;4953818;29;20031;-66
2022/01/29 07:00:31;;;;;;;28.35;9.45;;;1.60;99.90;;;;;;4952490;29;20049;-66
2022/01/29 07:02:56;;;;;;;30.20;10.60;;;1.60;99.90;;;;;;4952477;29;20035;-64
2022/01/29 07:05:22;;;;;;;33.80;12.27;;;1.60;99.90;;;;;;4952963;29;20435;-64
2022/01/29 07:07:48;;;;;;;31.55;11.73;;;1.60;99.90;;;;;;4951728;28;21018;-65
2022/01/29 07:10:14;;;;;;;33.45;12.15;;;1.50;99.90;;;;;;4953280;28;20046;-66
2022/01/29 07:12:40;;;;;;;35.55;12.95;;;1.50;99.90;;;;;;4952330;28;20130;-65
2022/01/29 07:15:10;;;;;;;39.85;14.30;;;1.50;99.90;;;;;;4953445;28;20042;-64
2022/01/29 07:17:36;;;;;;;42.83;14.85;;;1.50;99.90;;;;;;4953139;28;20030;-64
2022/01/29 07:20:03;;;;;;;48.53;16.33;;;1.40;99.90;;;;;;4952523;28;20043;-66
2022/01/29 07:22:29;;;;;;;46.40;16.17;;;1.40;99.90;;;;;;4952567;28;20045;-69
2022/01/29 07:24:55;;;;;;;50.88;16.85;;;1.40;99.90;;;;;;4951861;29;20031;-65
2022/01/29 07:27:20;;;;;;;49.67;17.15;;;1.40;99.90;;;;;;4953004;28;20038;-64
2022/01/29 07:29:46;;;;;;;48.80;16.58;;;1.40;99.90;;;;;;4950684;29;20046;-65
2022/01/29 07:32:12;;;;;;;48.33;16.33;;;1.40;99.90;;;;;;4953144;29;20029;-67
2022/01/29 07:34:38;;;;;;;50.33;16.60;;;1.40;99.90;;;;;;4952335;28;20030;-67
2022/01/29 07:37:04;;;;;;;50.00;16.85;;;1.40;99.90;;;;;;4953313;28;20027;-64
2022/01/29 07:39:31;;;;;;;46.17;16.88;;;1.40;99.90;;;;;;4951262;29;20468;-70
2022/01/29 07:41:56;;;;;;;45.40;16.30;;;1.40;99.90;;;;;;4952508;28;20054;-68
2022/01/29 07:44:23;;;;;;;48.92;16.35;;;1.40;99.90;;;;;;4952474;28;20066;-65
2022/01/29 07:46:49;;;;;;;49.70;17.02;;;1.40;99.90;;;;;;4949758;29;20054;-66
2022/01/29 07:49:15;;;;;;;45.97;15.82;;;1.40;99.90;;;;;;4952214;28;20045;-64
2022/01/29 07:51:41;;;;;;;52.10;16.27;;;1.40;99.90;;;;;;4953906;28;20388;-66
2022/01/29 07:54:07;;;;;;;51.95;17.35;;;1.30;99.90;;;;;;4952174;28;20472;-68
2022/01/29 07:56:33;;;;;;;49.30;14.68;;;1.40;99.90;;;;;;4951746;28;20381;-66
2022/01/29 07:58:59;;;;;;;50.38;17.33;;;1.40;99.90;;;;;;4952330;28;20028;-66
2022/01/29 08:01:25;;;;;;;48.88;16.58;;;1.40;99.90;;;;;;4951017;29;20086;-66
2022/01/29 08:03:52;;;;;;;43.35;15.68;;;1.30;99.90;;;;;;4951109;29;20027;-66
2022/01/29 08:06:20;;;;;;;47.97;16.42;;;1.30;99.90;;;;;;4953165;28;20118;-66
2022/01/29 08:08:45;;;;;;;50.58;16.55;;;1.30;99.90;;;;;;4951095;28;20724;-66
2022/01/29 08:11:12;;;;;;;45.72;14.82;;;1.30;99.90;;;;;;4952192;29;20122;-66
2022/01/29 08:13:38;;;;;;;45.28;15.90;;;1.30;99.90;;;;;;4951396;28;20106;-66
2022/01/29 08:16:04;;;;;;;45.67;16.52;;;1.40;99.90;;;;;;4951937;28;20090;-67
2022/01/29 08:18:30;;;;;;;51.08;15.65;;;1.30;99.90;;;;;;4951496;29;20428;-70
2022/01/29 08:20:56;;;;;;;47.70;15.65;;;1.40;99.90;;;;;;4951798;29;20039;-66
2022/01/29 08:23:22;;;;;;;51.40;16.08;;;1.40;99.90;;;;;;4954123;28;20524;-66
2022/01/29 08:25:48;;;;;;;47.78;16.38;;;1.40;99.90;;;;;;4949434;29;20039;-66
2022/01/29 08:28:14;;;;;;;41.88;14.50;;;1.40;99.90;;;;;;4951202;29;20364;-67
2022/01/29 08:30:40;;;;;;;41.05;14.65;;;1.50;99.90;;;;;;4949989;29;20468;-64
2022/01/29 08:33:07;;;;;;;39.65;13.68;;;1.50;99.90;;;;;;4951028;29;20531;-66
2022/01/29 08:35:33;;;;;;;46.45;15.35;;;1.50;99.90;;;;;;4950100;29;20028;-69
2022/01/29 08:37:59;;;;;;;42.53;14.43;;;1.50;99.90;;;;;;4952199;28;20039;-66
2022/01/29 08:40:26;;;;;;;39.60;14.18;;;1.60;99.90;;;;;;4951468;28;20492;-67
2022/01/29 08:42:52;;;;;;;43.58;12.85;;;1.60;99.90;;;;;;4932157;29;20112;-65
2022/01/29 08:45:18;;;;;;;41.72;14.15;;;1.60;99.90;;;;;;4936670;29;20368;-65
2022/01/29 08:47:44;;;;;;;43.20;13.90;;;1.60;99.90;;;;;;4949988;29;20046;-67
2022/01/29 08:50:11;;;;;;;37.63;13.15;;;1.60;99.90;;;;;;4952123;28;20065;-67
2022/01/29 08:52:38;;;;;;;32.63;11.98;;;1.70;99.90;;;;;;4949469;29;20782;-64
2022/01/29 08:55:06;;;;;;;28.15;10.95;;;1.70;99.90;;;;;;4949759;29;20034;-66
2022/01/29 08:57:32;;;;;;;27.45;10.45;;;1.70;99.90;;;;;;4951756;28;20053;-69
2022/01/29 08:59:58;;;;;;;28.10;10.10;;;1.80;99.90;;;;;;4949582;29;20042;-67
2022/01/29 09:02:23;;;;;;;29.40;10.82;;;1.80;99.90;;;;;;4950904;28;20024;-67
2022/01/29 09:04:52;;;;;;;32.47;10.88;;;1.90;99.90;;;;;;4951382;28;20042;-64
2022/01/29 09:07:17;;;;;;;25.10;9.43;;;1.90;99.90;;;;;;4950717;28;20544;-67
2022/01/29 09:09:45;;;;;;;30.73;10.15;;;1.90;99.90;;;;;;4950439;29;20145;-65
2022/01/29 09:12:13;;;;;;;22.90;8.77;;;1.90;99.90;;;;;;4951839;28;20024;-66
2022/01/29 09:14:39;;;;;;;21.67;8.60;;;2.00;99.90;;;;;;4934771;28;20043;-67
2022/01/29 09:17:05;;;;;;;27.80;9.32;;;2.00;99.90;;;;;;4951270;28;20387;-66
2022/01/29 09:19:31;;;;;;;26.33;10.20;;;2.00;99.90;;;;;;4951135;29;20039;-64
2022/01/29 09:21:57;;;;;;;24.73;8.73;;;2.10;99.90;;;;;;4950978;28;20097;-67
2022/01/29 09:24:23;;;;;;;20.77;7.43;;;2.10;99.90;;;;;;4950639;29;20023;-66
2022/01/29 09:26:48;;;;;;;18.90;6.57;;;2.20;99.90;;;;;;4946815;28;20027;-67
2022/01/29 09:29:14;;;;;;;16.77;6.57;;;2.30;99.90;;;;;;4950453;29;20566;-66
2022/01/29 09:31:40;;;;;;;17.23;6.93;;;2.30;99.90;;;;;;4948825;29;20090;-65
2022/01/29 09:34:06;;;;;;;17.25;5.63;;;2.40;99.90;;;;;;4951387;28;20111;-64
2022/01/29 09:36:31;;;;;;;13.85;5.80;;;2.50;99.90;;;;;;4950642;28;20065;-66
2022/01/29 09:38:57;;;;;;;12.63;5.53;;;2.50;99.90;;;;;;4950484;28;20122;-69
2022/01/29 09:41:25;;;;;;;16.42;5.72;;;2.60;99.90;;;;;;4949760;29;20439;-66
2022/01/29 09:43:55;;;;;;;17.77;5.15;;;2.70;99.90;;;;;;4948816;29;20118;-66
2022/01/29 09:46:22;;;;;;;10.90;4.30;;;2.80;99.90;;;;;;4949575;29;20053;-66
2022/01/29 09:48:48;;;;;;;12.32;4.03;;;2.90;99.90;;;;;;4948796;29;20059;-66
2022/01/29 09:51:15;;;;;;;9.68;4.35;;;2.90;99.90;;;;;;4950883;28;20023;-66
2022/01/29 09:53:44;;;;;;;10.88;4.18;;;3.00;99.90;;;;;;4950400;28;20031;-67
2022/01/29 09:56:11;;;;;;;10.98;4.45;;;3.10;99.90;;;;;;4950873;28;20543;-66
2022/01/29 09:58:37;;;;;;;12.20;4.88;;;3.00;99.90;;;;;;4950461;28;20113;-71
2022/01/29 10:01:03;;;;;;;11.70;4.70;;;3.00;99.90;;;;;;4950598;28;20045;-67
2022/01/29 10:03:28;;;;;;;12.07;4.53;;;3.00;99.90;;;;;;4950266;28;20551;-66
2022/01/29 10:05:57;;;;;;;12.70;4.63;;;3.10;99.90;;;;;;4950006;28;20040;-68
2022/01/29 10:08:23;;;;;;;11.82;4.00;;;3.20;99.90;;;;;;4949310;29;20114;-68
2022/01/29 10:10:59;;;;;;;14.00;4.38;;;3.20;99.90;;;;;;4949920;28;20489;-67
2022/01/29 10:13:37;;;;;;;12.23;4.63;;;3.30;99.90;;;;;;4950563;28;20038;-67
2022/01/29 10:16:23;;;;;;;7.80;3.50;;;3.50;99.90;;;;;;4952978;28;20050;-65
2022/01/29 10:19:12;;;;;;;10.88;4.15;;;3.60;99.90;;;;;;4952193;29;20377;-67
2022/01/29 10:21:41;;;;;;;11.05;3.80;;;3.70;99.90;;;;;;4935464;29;20449;-68
2022/01/29 10:24:09;;;;;;;13.52;4.15;;;3.60;99.90;;;;;;4935678;29;20087;-65
2022/01/29 10:26:36;;;;;;;10.90;4.03;;;3.70;99.90;;;;;;4935396;29;20027;-65
2022/01/29 10:29:08;;;;;;;11.45;4.05;;;3.80;99.90;;;;;;4933719;29;20028;-65
2022/01/29 10:31:45;;;;;;;9.57;4.05;;;3.90;99.90;;;;;;4935378;29;20035;-67
2022/01/29 10:34:18;;;;;;;10.77;3.53;;;4.00;99.90;;;;;;4943628;29;20365;-67
2022/01/29 10:36:44;;;;;;;10.15;4.00;;;4.20;99.90;;;;;;4952768;28;20031;-67
2022/01/29 10:39:10;;;;;;;9.35;4.00;;;4.10;99.90;;;;;;4951024;29;20067;-66
2022/01/29 10:41:36;;;;;;;8.40;3.22;;;4.00;99.90;;;;;;4953481;28;20114;-68
2022/01/29 10:46:47;;;;;;;8.23;3.40;;;4.00;99.90;;;;;;4953175;28;20182;-66
2022/01/29 10:49:24;;;;;;;11.75;3.22;;;4.00;99.90;;;;;;4955033;28;20043;-67
2022/01/29 10:51:59;;;;;;;9.90;3.88;;;4.10;99.90;;;;;;4950855;29;20031;-66
2022/01/29 10:54:26;;;;;;;10.90;4.07;;;4.10;99.90;;;;;;4953244;29;20042;-66
2022/01/29 10:57:03;;;;;;;10.98;3.97;;;4.10;99.90;;;;;;4952064;29;20058;-66
2022/01/29 10:59:31;;;;;;;10.82;3.88;;;4.10;99.90;;;;;;4935011;29;20055;-68
2022/01/29 11:02:03;;;;;;;10.82;4.28;;;4.10;99.90;;;;;;4933041;29;20817;-67
2022/01/29 11:04:30;;;;;;;11.57;4.22;;;4.10;99.90;;;;;;4952943;29;20381;-67
2022/01/29 11:07:00;;;;;;;10.20;3.78;;;4.20;99.90;;;;;;4953009;28;20028;-67
2022/01/29 11:09:28;;;;;;;10.18;4.22;;;4.10;99.90;;;;;;4952954;29;20058;-68
2022/01/29 11:11:58;;;;;;;12.02;4.88;;;4.20;99.90;;;;;;4944508;29;20047;-65
2022/01/29 11:14:24;;;;;;;11.82;4.07;;;4.20;99.90;;;;;;4953307;29;20038;-67
2022/01/29 11:16:52;;;;;;;12.82;4.78;;;4.30;99.90;;;;;;4951937;28;20110;-65
2022/01/29 11:19:18;;;;;;;10.45;4.50;;;4.30;99.90;;;;;;4952095;29;20480;-66
2022/01/29 11:21:47;;;;;;;15.93;4.82;;;4.20;99.90;;;;;;4950107;28;20038;-67
2022/01/29 11:24:21;;;;;;;10.05;4.22;;;4.30;99.90;;;;;;4951861;28;20689;-65
2022/01/29 11:26:47;;;;;;;10.32;4.22;;;4.30;99.90;;;;;;4951917;28;20495;-66
2022/01/29 11:29:34;;;;;;;12.07;5.05;;;4.20;99.90;;;;;;4952271;28;20054;-65
2022/01/29 11:32:22;;;;;;;12.40;4.55;;;4.20;99.90;;;;;;4949628;29;20647;-66
2022/01/29 11:35:05;;;;;;;12.07;4.03;;;4.20;99.90;;;;;;4950526;29;20054;-65
2022/01/29 11:37:43;;;;;;;12.77;4.63;;;4.20;99.90;;;;;;4951990;29;20130;-69
2022/01/29 11:40:31;;;;;;;12.20;5.20;;;4.10;99.90;;;;;;4952762;29;20045;-66
2022/01/29 11:43:07;;;;;;;11.55;4.88;;;4.10;99.90;;;;;;4950947;28;20031;-73
2022/01/29 11:45:42;;;;;;;12.82;4.90;;;4.10;99.90;;;;;;4951870;28;20476;-70
2022/01/29 11:48:29;;;;;;;14.43;5.03;;;4.00;99.90;;;;;;4949206;28;20093;-70
2022/01/29 11:51:01;;;;;;;12.35;4.25;;;4.10;99.90;;;;;;4964750;28;20058;-73
2022/01/29 11:53:49;;;;;;;12.40;4.95;;;4.10;99.90;;;;;;4952435;29;20031;-72
2022/01/29 11:56:36;;;;;;;15.70;5.70;;;4.00;99.90;;;;;;4954320;28;20152;-72
2022/01/29 11:59:20;;;;;;;15.38;5.35;;;4.00;99.90;;;;;;4950943;28;20068;-72
2022/01/29 12:01:47;;;;;;;14.10;5.40;;;4.00;99.90;;;;;;4950800;29;20063;-73
2022/01/29 12:04:14;;;;;;;14.20;5.20;;;4.10;99.90;;;;;;4952052;28;20495;-71
2022/01/29 12:07:09;;;;;;;12.50;4.78;;;4.10;99.90;;;;;;4955793;28;20055;-72
2022/01/29 12:10:02;;;;;;;16.80;6.50;;;4.00;99.90;;;;;;4949832;28;20077;-71
2022/01/29 12:12:29;;;;;;;12.77;4.80;;;3.90;99.90;;;;;;4948063;28;20058;-71
2022/01/29 12:15:18;;;;;;;18.05;5.80;;;3.90;99.90;;;;;;4951399;28;20039;-73
2022/01/29 12:17:46;;;;;;;15.85;5.45;;;3.90;99.90;;;;;;4951081;28;20039;-74
2022/01/29 12:20:16;;;;;;;13.80;5.38;;;3.90;99.90;;;;;;4950510;28;20053;-72
2022/01/29 12:22:44;;;;;;;15.90;6.22;;;3.80;99.90;;;;;;4957975;28;20045;-72
2022/01/29 12:25:12;;;;;;;15.35;5.90;;;3.90;99.90;;;;;;4950592;28;20039;-67
2022/01/29 12:27:46;;;;;;;14.38;5.63;;;3.80;99.90;;;;;;4949489;29;20039;-70
2022/01/29 12:30:15;;;;;;;16.75;6.38;;;3.80;99.90;;;;;;4950024;28;20110;-67
2022/01/29 12:32:54;;;;;;;16.60;6.28;;;3.90;99.90;;;;;;4951476;29;20170;-68
2022/01/29 12:35:20;;;;;;;14.88;5.88;;;3.90;99.90;;;;;;4947654;28;20041;-69
2022/01/29 12:37:55;;;;;;;15.75;6.22;;;3.90;99.90;;;;;;4949632;28;20383;-71
2022/01/29 12:40:22;;;;;;;19.13;6.50;;;4.00;99.90;;;;;;4952240;28;20491;-69
2022/01/29 12:43:00;;;;;;;14.38;4.97;;;4.10;99.90;;;;;;4949302;28;20503;-70
2022/01/29 12:45:32;;;;;;;17.63;6.07;;;4.10;99.90;;;;;;4949597;28;20056;-68
2022/01/29 12:48:11;;;;;;;15.63;5.78;;;4.10;99.90;;;;;;4947394;28;20137;-69
2022/01/29 12:50:39;;;;;;;14.35;6.30;;;4.10;99.90;;;;;;4952191;28;20035;-68
2022/01/29 12:53:19;;;;;;;16.27;6.70;;;4.10;99.90;;;;;;4951206;28;20023;-69
2022/01/29 12:56:06;;;;;;;16.45;5.93;;;4.10;99.90;;;;;;4957381;28;20031;-71
2022/01/29 12:58:35;;;;;;;15.90;5.47;;;4.10;99.90;;;;;;4950900;28;20357;-70
2022/01/29 13:01:09;;;;;;;16.73;6.20;;;4.10;99.90;;;;;;4950613;28;20043;-70
2022/01/29 13:03:37;;;;;;;14.07;5.57;;;4.10;99.90;;;;;;4951421;28;20043;-70
2022/01/29 13:06:13;;;;;;;14.93;6.30;;;4.20;99.90;;;;;;4950832;28;20081;-70